Terminal Aerodrome Forecast
Issued by NWS

Home | Current Version | Previous Version | Text Only | Print | Product List | Glossary On
Versions: 1 2 3 4 5 6 7 8 9 10 11 12 13 14 15 16
000
FTUS43 KBIS 251700
TAFMOT
TAF
KMOT 251737Z 2518/2618 VRB06KT 6SM BR OVC006
     FM252100 21010KT P6SM OVC020
     FM260000 22011KT P6SM OVC070
     FM260300 27013G19KT P6SM BKN070=

USA.gov is the U.S. government's official web portal to all federal, state and local government web resources and services.